Latest Weather Observations for Melville Water

IDW60901

Issued at 11:01 pm WST Tuesday 19 March 2019 (issued every 10 minutes, with the page automatically refreshed every 10 minutes)

About weather observations | Map of Perth area stations | Latest observations for Perth area | Other Formats
Station Details ID: 009091 Name: INNER DOLPHIN PYLON Lat: -31.99 Lon: 115.83 Height: 0.0 m
Data from the previous 72 hours. | See also: Recent months at Melville Water
Date/Time
WST
Temp
°C
App
Temp
°C
Dew
Point
°C
Rel
Hum
%
Delta-T
°C
Wind Press
QNH
hPa
Press
MSL
hPa
Rain since
9am
mm
Dir  Spd
km/h
Gust
km/h
Spd
kts
Gust
kts
19/11:00pm - - - - - W 9 11 5 6 - - -
19/10:30pm - - - - - W 6 7 3 4 - - -
19/10:00pm - - - - - WNW 6 7 3 4 - - -
19/09:30pm - - - - - WSW 4 6 2 3 - - -
19/09:00pm - - - - - SSW 6 7 3 4 - - -
19/08:30pm - - - - - ESE 2 2 1 1 - - -
19/08:00pm - - - - - SSE 4 7 2 4 - - -
19/07:30pm - - - - - SSW 4 7 2 4 - - -
19/07:00pm - - - - - SW 11 13 6 7 - - -
19/06:30pm - - - - - SW 13 17 7 9 - - -
19/06:00pm - - - - - SSW 17 20 9 11 - - -
19/05:30pm - - - - - SSW 20 24 11 13 - - -
19/05:00pm - - - - - SW 17 20 9 11 - - -
19/04:30pm - - - - - SW 17 20 9 11 - - -
19/04:00pm - - - - - SW 20 24 11 13 - - -
19/03:30pm - - - - - WSW 24 32 13 17 - - -
19/03:00pm - - - - - WSW 22 32 12 17 - - -
19/02:30pm - - - - - SW 22 26 12 14 - - -
19/02:00pm - - - - - SW 22 30 12 16 - - -
19/01:30pm - - - - - WSW 22 28 12 15 - - -
19/01:00pm - - - - - SW 17 22 9 12 - - -
19/12:30pm - - - - - SW 13 15 7 8 - - -
19/12:00pm - - - - - SW 15 20 8 11 - - -
19/11:30am - - - - - WSW 15 19 8 10 - - -
19/11:00am - - - - - WSW 19 24 10 13 - - -
19/10:30am - - - - - SSW 9 13 5 7 - - -
19/10:00am - - - - - WNW 7 11 4 6 - - -
19/09:30am - - - - - NW 11 15 6 8 - - -
19/09:00am - - - - - NW 9 13 5 7 - - -
19/08:30am - - - - - NNW 9 13 5 7 - - -
19/08:00am - - - - - NNW 9 17 5 9 - - -
19/07:30am - - - - - NNE 11 13 6 7 - - -
19/07:00am - - - - - NE 6 7 3 4 - - -
19/06:30am - - - - - NE 15 17 8 9 - - -
19/06:00am - - - - - ENE 24 32 13 17 - - -
19/05:30am - - - - - ENE 22 30 12 16 - - -
19/05:00am - - - - - ENE 17 20 9 11 - - -
19/04:30am - - - - - ENE 19 24 10 13 - - -
19/04:00am - - - - - ENE 22 28 12 15 - - -
19/03:30am - - - - - ENE 19 24 10 13 - - -
19/03:00am - - - - - ENE 13 17 7 9 - - -
19/02:30am - - - - - NE 9 13 5 7 - - -
19/02:00am - - - - - NE 9 15 5 8 - - -
19/01:30am - - - - - NNE 13 19 7 10 - - -
19/01:00am - - - - - S 2 9 1 5 - - -
19/12:30am - - - - - NNW 6 9 3 5 - - -
19/12:00am - - - - - NNW 6 6 3 3 - - -
 
Date/Time
WST
Temp
°C
App
Temp
°C
Dew
Point
°C
Rel
Hum
%
Delta-T
°C
Wind Press
QNH
hPa
Press
MSL
hPa
Rain since
9am
mm
Dir  Spd
km/h
Gust
km/h
Spd
kts
Gust
kts
18/11:30pm - - - - - W 4 6 2 3 - - -
18/11:00pm - - - - - SSW 4 4 2 2 - - -
18/10:30pm - - - - - S 4 6 2 3 - - -
18/10:00pm - - - - - E 11 17 6 9 - - -
18/09:30pm - - - - - WSW 6 6 3 3 - - -
18/09:00pm - - - - - W 6 7 3 4 - - -
18/08:30pm - - - - - WSW 9 13 5 7 - - -
18/08:00pm - - - - - SSW 6 9 3 5 - - -
18/07:30pm - - - - - SSW 6 9 3 5 - - -
18/07:00pm - - - - - WSW 13 15 7 8 - - -
18/06:30pm - - - - - WSW 17 19 9 10 - - -
18/06:00pm - - - - - SW 17 19 9 10 - - -
18/05:30pm - - - - - SW 15 17 8 9 - - -
18/05:00pm - - - - - WSW 11 15 6 8 - - -
18/04:30pm - - - - - WSW 19 22 10 12 - - -
18/04:00pm - - - - - SW 20 26 11 14 - - -
18/03:30pm - - - - - WSW 19 22 10 12 - - -
18/03:00pm - - - - - WSW 20 24 11 13 - - -
18/02:30pm - - - - - WSW 20 26 11 14 - - -
18/02:00pm - - - - - WSW 19 24 10 13 - - -
18/01:30pm - - - - - WSW 17 22 9 12 - - -
18/01:00pm - - - - - WSW 17 20 9 11 - - -
18/12:30pm - - - - - WSW 17 19 9 10 - - -
18/12:00pm - - - - - W 15 19 8 10 - - -
18/11:30am - - - - - NE 13 20 7 11 - - -
18/11:00am - - - - - NE 7 15 4 8 - - -
18/10:30am - - - - - ENE 6 7 3 4 - - -
18/10:00am - - - - - NE 11 17 6 9 - - -
18/09:30am - - - - - ENE 15 20 8 11 - - -
18/09:00am - - - - - ENE 13 19 7 10 - - -
18/08:30am - - - - - ENE 20 28 11 15 - - -
18/08:00am - - - - - ENE 20 30 11 16 - - -
18/07:30am - - - - - ENE 15 20 8 11 - - -
18/07:00am - - - - - ENE 11 15 6 8 - - -
18/06:30am - - - - - ENE 11 13 6 7 - - -
18/06:00am - - - - - ENE 11 13 6 7 - - -
18/05:30am - - - - - ENE 9 11 5 6 - - -
18/05:00am - - - - - ESE 7 9 4 5 - - -
18/04:30am - - - - - E 6 7 3 4 - - -
18/04:00am - - - - - E 11 15 6 8 - - -
18/03:30am - - - - - E 11 15 6 8 - - -
18/03:00am - - - - - E 6 9 3 5 - - -
18/02:30am - - - - - E 9 13 5 7 - - -
18/02:00am - - - - - ENE 15 19 8 10 - - -
18/01:30am - - - - - ENE 17 22 9 12 - - -
18/01:00am - - - - - E 20 26 11 14 - - -
18/12:30am - - - - - E 17 24 9 13 - - -
18/12:00am - - - - - E 9 13 5 7 - - -
 
Date/Time
WST
Temp
°C
App
Temp
°C
Dew
Point
°C
Rel
Hum
%
Delta-T
°C
Wind Press
QNH
hPa
Press
MSL
hPa
Rain since
9am
mm
Dir  Spd
km/h
Gust
km/h
Spd
kts
Gust
kts
17/11:30pm - - - - - ESE 9 11 5 6 - - -
17/11:00pm - - - - - S 4 7 2 4 - - -
17/10:30pm - - - - - SSW 6 7 3 4 - - -
17/10:00pm - - - - - S 4 6 2 3 - - -
17/09:30pm - - - - - SSE 7 11 4 6 - - -
17/09:00pm - - - - - S 11 15 6 8 - - -
17/08:30pm - - - - - SSW 20 24 11 13 - - -
17/08:00pm - - - - - SSW 20 28 11 15 - - -
17/07:30pm - - - - - SSW 20 28 11 15 - - -
17/07:00pm - - - - - SSW 22 28 12 15 - - -
17/06:30pm - - - - - SSW 30 37 16 20 - - -
17/06:00pm - - - - - SSW 33 41 18 22 - - -
17/05:30pm - - - - - SSW 35 43 19 23 - - -
17/05:00pm - - - - - SSW 32 43 17 23 - - -
17/04:30pm - - - - - SW 33 39 18 21 - - -
17/04:00pm - - - - - SW 28 32 15 17 - - -
17/03:30pm - - - - - SW 28 33 15 18 - - -
17/03:00pm - - - - - SW 28 33 15 18 - - -
17/02:30pm - - - - - SW 26 30 14 16 - - -
17/02:00pm - - - - - WSW 24 28 13 15 - - -
17/01:30pm - - - - - WSW 19 24 10 13 - - -
17/01:00pm - - - - - WSW 13 17 7 9 - - -
17/12:30pm - - - - - SW 9 11 5 6 - - -
17/12:00pm - - - - - W 6 9 3 5 - - -
17/11:30am - - - - - WSW 2 4 1 2 - - -
17/11:00am - - - - - E 11 17 6 9 - - -
17/10:30am - - - - - ESE 13 20 7 11 - - -
17/10:00am - - - - - ESE 17 24 9 13 - - -
17/09:30am - - - - - ESE 19 26 10 14 - - -
17/09:00am - - - - - ESE 22 28 12 15 - - -
17/08:30am - - - - - ESE 17 24 9 13 - - -
17/08:00am - - - - - SE 15 19 8 10 - - -
17/07:30am - - - - - SE 15 19 8 10 - - -
17/07:00am - - - - - SE 19 24 10 13 - - -
17/06:30am - - - - - SE 17 20 9 11 - - -
17/06:00am - - - - - SE 17 22 9 12 - - -
17/05:30am - - - - - SE 17 22 9 12 - - -
17/05:00am - - - - - SE 17 22 9 12 - - -
17/04:30am - - - - - SE 15 20 8 11 - - -
17/04:00am - - - - - SE 17 26 9 14 - - -
17/03:30am - - - - - ESE 22 30 12 16 - - -
17/03:00am - - - - - ESE 24 33 13 18 - - -
17/02:30am - - - - - ESE 24 33 13 18 - - -
17/02:00am - - - - - ESE 20 28 11 15 - - -
17/01:30am - - - - - ESE 22 30 12 16 - - -
17/01:00am - - - - - ESE 19 26 10 14 - - -
17/12:30am - - - - - ESE 20 26 11 14 - - -
17/12:00am - - - - - ESE 26 37 14 20 - - -
 
Date/Time
WST
Temp
°C
App
Temp
°C
Dew
Point
°C
Rel
Hum
%
Delta-T
°C
Wind Press
QNH
hPa
Press
MSL
hPa
Rain since
9am
mm
Dir  Spd
km/h
Gust
km/h
Spd
kts
Gust
kts
16/11:30pm - - - - - ESE 17 24 9 13 - - -

Latest Capital City Observations: Canberra | Sydney | Melbourne | Brisbane | Adelaide | Perth | Hobart | Darwin

Other formats

Comma delimited format used in spreadsheet applications
http://www.bom.gov.au/fwo/IDW60901/IDW60901.95620.axf

JavaScript Object Notation format (JSON) in row-major order
http://www.bom.gov.au/fwo/IDW60901/IDW60901.95620.json

Data quality

Most of these data are generated automatically and are frequently updated. Quality checks on data are not normally performed. It is possible for incorrect values to appear. Refer to information at About Latest Weather Observations and please check the disclaimer before using these data.